sensor_id;sensor_type;location;lat;lon;timestamp;temperature;humidity
52765;DHT22;38650;44.536;18.664;2023-06-22T00:00:43;25.50;96.00
52765;DHT22;38650;44.536;18.664;2023-06-22T00:03:10;25.50;96.20
52765;DHT22;38650;44.536;18.664;2023-06-22T00:05:35;25.50;96.40
52765;DHT22;38650;44.536;18.664;2023-06-22T00:08:04;25.30;97.00
52765;DHT22;38650;44.536;18.664;2023-06-22T00:10:30;25.20;97.60
52765;DHT22;38650;44.536;18.664;2023-06-22T00:12:55;25.10;97.90
52765;DHT22;38650;44.536;18.664;2023-06-22T00:15:21;24.90;98.10
52765;DHT22;38650;44.536;18.664;2023-06-22T00:17:46;25.00;98.40
52765;DHT22;38650;44.536;18.664;2023-06-22T00:20:12;24.90;98.80
52765;DHT22;38650;44.536;18.664;2023-06-22T00:22:39;24.90;99.10
52765;DHT22;38650;44.536;18.664;2023-06-22T00:25:06;24.80;99.20
52765;DHT22;38650;44.536;18.664;2023-06-22T00:27:32;24.90;99.30
52765;DHT22;38650;44.536;18.664;2023-06-22T00:29:57;24.90;99.40
52765;DHT22;38650;44.536;18.664;2023-06-22T00:32:23;24.80;99.50
52765;DHT22;38650;44.536;18.664;2023-06-22T00:34:48;24.70;99.80
52765;DHT22;38650;44.536;18.664;2023-06-22T00:37:15;24.60;99.90
52765;DHT22;38650;44.536;18.664;2023-06-22T00:39:41;24.60;99.90
52765;DHT22;38650;44.536;18.664;2023-06-22T00:42:07;24.70;99.90
52765;DHT22;38650;44.536;18.664;2023-06-22T00:44:32;24.70;99.90
52765;DHT22;38650;44.536;18.664;2023-06-22T00:46:58;24.70;99.90
52765;DHT22;38650;44.536;18.664;2023-06-22T00:49:25;24.70;99.90
52765;DHT22;38650;44.536;18.664;2023-06-22T00:51:51;24.70;99.90
52765;DHT22;38650;44.536;18.664;2023-06-22T00:54:17;24.70;99.90
52765;DHT22;38650;44.536;18.664;2023-06-22T00:56:53;24.70;99.80
52765;DHT22;38650;44.536;18.664;2023-06-22T00:59:20;24.70;99.50
52765;DHT22;38650;44.536;18.664;2023-06-22T01:01:45;24.70;99.30
52765;DHT22;38650;44.536;18.664;2023-06-22T01:04:11;24.70;99.30
52765;DHT22;38650;44.536;18.664;2023-06-22T01:06:38;24.70;98.70
52765;DHT22;38650;44.536;18.664;2023-06-22T01:09:10;24.70;98.70
52765;DHT22;38650;44.536;18.664;2023-06-22T01:11:38;24.60;98.50
52765;DHT22;38650;44.536;18.664;2023-06-22T01:14:10;24.70;98.30
52765;DHT22;38650;44.536;18.664;2023-06-22T01:16:40;24.70;98.00
52765;DHT22;38650;44.536;18.664;2023-06-22T01:19:09;24.70;98.00
52765;DHT22;38650;44.536;18.664;2023-06-22T01:21:41;24.70;98.20
52765;DHT22;38650;44.536;18.664;2023-06-22T01:26:43;24.60;98.70
52765;DHT22;38650;44.536;18.664;2023-06-22T01:29:14;24.50;98.80
52765;DHT22;38650;44.536;18.664;2023-06-22T01:31:40;24.50;98.90
52765;DHT22;38650;44.536;18.664;2023-06-22T01:34:08;24.50;98.70
52765;DHT22;38650;44.536;18.664;2023-06-22T01:36:34;24.60;98.70
52765;DHT22;38650;44.536;18.664;2023-06-22T01:38:59;24.40;99.30
52765;DHT22;38650;44.536;18.664;2023-06-22T01:41:26;24.20;99.90
52765;DHT22;38650;44.536;18.664;2023-06-22T01:43:53;24.10;99.90
52765;DHT22;38650;44.536;18.664;2023-06-22T01:46:19;23.90;99.90
52765;DHT22;38650;44.536;18.664;2023-06-22T01:48:46;23.70;99.90
52765;DHT22;38650;44.536;18.664;2023-06-22T01:51:11;23.40;99.90
52765;DHT22;38650;44.536;18.664;2023-06-22T01:53:37;23.20;99.90
52765;DHT22;38650;44.536;18.664;2023-06-22T01:56:03;23.20;99.90
52765;DHT22;38650;44.536;18.664;2023-06-22T01:58:29;23.10;99.90
52765;DHT22;38650;44.536;18.664;2023-06-22T02:03:39;23.00;99.90
52765;DHT22;38650;44.536;18.664;2023-06-22T02:06:08;23.10;99.90
52765;DHT22;38650;44.536;18.664;2023-06-22T02:08:40;23.20;99.90
52765;DHT22;38650;44.536;18.664;2023-06-22T02:11:07;23.30;99.90
52765;DHT22;38650;44.536;18.664;2023-06-22T02:13:33;23.30;99.90
52765;DHT22;38650;44.536;18.664;2023-06-22T02:15:59;23.50;99.90
52765;DHT22;38650;44.536;18.664;2023-06-22T02:18:25;23.50;99.90
52765;DHT22;38650;44.536;18.664;2023-06-22T02:20:51;23.60;99.90
52765;DHT22;38650;44.536;18.664;2023-06-22T02:23:16;23.70;99.90
52765;DHT22;38650;44.536;18.664;2023-06-22T02:25:42;23.80;99.90
52765;DHT22;38650;44.536;18.664;2023-06-22T02:28:09;23.80;99.90
52765;DHT22;38650;44.536;18.664;2023-06-22T02:30:35;23.90;99.90
52765;DHT22;38650;44.536;18.664;2023-06-22T02:33:00;23.90;99.90
52765;DHT22;38650;44.536;18.664;2023-06-22T02:35:27;24.00;99.90
52765;DHT22;38650;44.536;18.664;2023-06-22T02:37:57;23.90;99.90
52765;DHT22;38650;44.536;18.664;2023-06-22T02:40:23;23.90;99.90
52765;DHT22;38650;44.536;18.664;2023-06-22T02:42:48;23.80;99.90
52765;DHT22;38650;44.536;18.664;2023-06-22T02:45:14;23.90;99.90
52765;DHT22;38650;44.536;18.664;2023-06-22T02:47:39;23.90;99.90
52765;DHT22;38650;44.536;18.664;2023-06-22T02:50:05;23.90;99.90
52765;DHT22;38650;44.536;18.664;2023-06-22T02:52:31;24.00;99.90
52765;DHT22;38650;44.536;18.664;2023-06-22T02:54:56;24.00;99.90
52765;DHT22;38650;44.536;18.664;2023-06-22T02:57:22;23.90;99.90
52765;DHT22;38650;44.536;18.664;2023-06-22T02:59:47;24.00;99.90
52765;DHT22;38650;44.536;18.664;2023-06-22T03:02:13;23.90;99.90
52765;DHT22;38650;44.536;18.664;2023-06-22T03:04:38;23.80;99.90
52765;DHT22;38650;44.536;18.664;2023-06-22T03:07:04;23.80;99.90
52765;DHT22;38650;44.536;18.664;2023-06-22T03:09:30;23.90;99.90
52765;DHT22;38650;44.536;18.664;2023-06-22T03:11:56;23.80;99.90
52765;DHT22;38650;44.536;18.664;2023-06-22T03:14:21;23.90;99.90
52765;DHT22;38650;44.536;18.664;2023-06-22T03:16:47;23.80;99.90
52765;DHT22;38650;44.536;18.664;2023-06-22T03:19:13;23.80;99.90
52765;DHT22;38650;44.536;18.664;2023-06-22T03:21:39;23.70;99.90
52765;DHT22;38650;44.536;18.664;2023-06-22T03:24:05;23.60;99.90
52765;DHT22;38650;44.536;18.664;2023-06-22T03:26:31;23.30;99.90
52765;DHT22;38650;44.536;18.664;2023-06-22T03:28:56;23.30;99.90
52765;DHT22;38650;44.536;18.664;2023-06-22T03:31:22;23.40;99.90
52765;DHT22;38650;44.536;18.664;2023-06-22T03:33:51;23.50;99.90
52765;DHT22;38650;44.536;18.664;2023-06-22T03:36:17;23.60;99.90
52765;DHT22;38650;44.536;18.664;2023-06-22T03:38:46;23.70;99.90
52765;DHT22;38650;44.536;18.664;2023-06-22T03:41:11;23.80;99.90
52765;DHT22;38650;44.536;18.664;2023-06-22T03:43:37;23.80;99.90
52765;DHT22;38650;44.536;18.664;2023-06-22T03:46:03;23.70;99.90
52765;DHT22;38650;44.536;18.664;2023-06-22T03:48:28;23.50;99.90
52765;DHT22;38650;44.536;18.664;2023-06-22T03:50:54;23.50;99.90
52765;DHT22;38650;44.536;18.664;2023-06-22T03:53:19;23.60;99.90
52765;DHT22;38650;44.536;18.664;2023-06-22T03:55:49;23.60;99.90
52765;DHT22;38650;44.536;18.664;2023-06-22T03:58:15;23.60;99.90
52765;DHT22;38650;44.536;18.664;2023-06-22T04:00:41;23.60;99.90
52765;DHT22;38650;44.536;18.664;2023-06-22T04:03:06;23.80;99.90
52765;DHT22;38650;44.536;18.664;2023-06-22T04:05:32;23.80;99.90
52765;DHT22;38650;44.536;18.664;2023-06-22T04:07:58;24.00;99.90
52765;DHT22;38650;44.536;18.664;2023-06-22T04:10:24;24.00;99.90
52765;DHT22;38650;44.536;18.664;2023-06-22T04:12:49;24.10;99.90
52765;DHT22;38650;44.536;18.664;2023-06-22T04:15:15;24.10;99.90
52765;DHT22;38650;44.536;18.664;2023-06-22T04:17:40;24.20;99.90
52765;DHT22;38650;44.536;18.664;2023-06-22T04:20:06;24.20;99.90
52765;DHT22;38650;44.536;18.664;2023-06-22T04:22:32;24.30;99.90
52765;DHT22;38650;44.536;18.664;2023-06-22T04:24:57;24.30;99.90
52765;DHT22;38650;44.536;18.664;2023-06-22T04:27:23;24.40;99.90
52765;DHT22;38650;44.536;18.664;2023-06-22T04:29:49;24.40;99.90
52765;DHT22;38650;44.536;18.664;2023-06-22T04:32:15;24.50;99.90
52765;DHT22;38650;44.536;18.664;2023-06-22T04:34:40;24.50;99.90
52765;DHT22;38650;44.536;18.664;2023-06-22T04:37:06;24.50;99.90
52765;DHT22;38650;44.536;18.664;2023-06-22T04:39:31;24.60;99.90
52765;DHT22;38650;44.536;18.664;2023-06-22T04:41:57;24.60;99.90
52765;DHT22;38650;44.536;18.664;2023-06-22T04:44:25;24.70;99.90
52765;DHT22;38650;44.536;18.664;2023-06-22T04:46:52;24.80;99.90
52765;DHT22;38650;44.536;18.664;2023-06-22T04:49:29;24.80;99.90
52765;DHT22;38650;44.536;18.664;2023-06-22T04:52:05;24.90;99.90
52765;DHT22;38650;44.536;18.664;2023-06-22T04:54:30;24.90;99.90
52765;DHT22;38650;44.536;18.664;2023-06-22T04:56:59;25.00;99.90
52765;DHT22;38650;44.536;18.664;2023-06-22T04:59:26;25.10;99.90
52765;DHT22;38650;44.536;18.664;2023-06-22T05:01:56;25.20;99.90
52765;DHT22;38650;44.536;18.664;2023-06-22T05:04:23;25.20;99.50
52765;DHT22;38650;44.536;18.664;2023-06-22T05:06:50;25.20;99.60
52765;DHT22;38650;44.536;18.664;2023-06-22T05:09:15;25.30;99.40
52765;DHT22;38650;44.536;18.664;2023-06-22T05:11:42;25.40;99.20
52765;DHT22;38650;44.536;18.664;2023-06-22T05:14:08;25.50;99.00
52765;DHT22;38650;44.536;18.664;2023-06-22T05:16:34;25.50;98.70
52765;DHT22;38650;44.536;18.664;2023-06-22T05:19:00;25.50;99.30
52765;DHT22;38650;44.536;18.664;2023-06-22T05:21:28;25.60;99.00
52765;DHT22;38650;44.536;18.664;2023-06-22T05:23:54;25.60;98.90
52765;DHT22;38650;44.536;18.664;2023-06-22T05:26:20;25.60;99.10
52765;DHT22;38650;44.536;18.664;2023-06-22T05:28:46;25.70;99.20
52765;DHT22;38650;44.536;18.664;2023-06-22T05:31:12;25.80;99.10
52765;DHT22;38650;44.536;18.664;2023-06-22T05:33:38;25.90;99.10
52765;DHT22;38650;44.536;18.664;2023-06-22T05:36:04;25.90;98.70
52765;DHT22;38650;44.536;18.664;2023-06-22T05:38:30;25.90;98.80
52765;DHT22;38650;44.536;18.664;2023-06-22T05:40:56;25.90;99.10
52765;DHT22;38650;44.536;18.664;2023-06-22T05:43:21;26.00;98.90
52765;DHT22;38650;44.536;18.664;2023-06-22T05:45:47;26.10;98.70
52765;DHT22;38650;44.536;18.664;2023-06-22T05:48:13;26.20;98.70
52765;DHT22;38650;44.536;18.664;2023-06-22T05:50:38;26.30;98.30
52765;DHT22;38650;44.536;18.664;2023-06-22T05:53:04;26.40;97.90
52765;DHT22;38650;44.536;18.664;2023-06-22T05:55:29;26.50;97.30
52765;DHT22;38650;44.536;18.664;2023-06-22T05:57:55;26.50;97.10
52765;DHT22;38650;44.536;18.664;2023-06-22T06:00:20;26.60;97.10
52765;DHT22;38650;44.536;18.664;2023-06-22T06:02:47;26.70;96.60
52765;DHT22;38650;44.536;18.664;2023-06-22T06:05:14;26.60;96.50
52765;DHT22;38650;44.536;18.664;2023-06-22T06:07:40;26.70;97.00
52765;DHT22;38650;44.536;18.664;2023-06-22T06:10:06;26.80;96.40
52765;DHT22;38650;44.536;18.664;2023-06-22T06:12:32;27.00;96.10
52765;DHT22;38650;44.536;18.664;2023-06-22T06:14:57;27.20;96.20
52765;DHT22;38650;44.536;18.664;2023-06-22T06:17:23;27.40;95.70
52765;DHT22;38650;44.536;18.664;2023-06-22T06:19:49;27.50;95.50
52765;DHT22;38650;44.536;18.664;2023-06-22T06:22:14;27.70;95.70
52765;DHT22;38650;44.536;18.664;2023-06-22T06:24:40;27.80;95.70
52765;DHT22;38650;44.536;18.664;2023-06-22T06:27:05;27.90;94.60
52765;DHT22;38650;44.536;18.664;2023-06-22T06:29:31;28.00;95.10
52765;DHT22;38650;44.536;18.664;2023-06-22T06:31:57;28.10;94.90
52765;DHT22;38650;44.536;18.664;2023-06-22T06:34:22;28.20;93.70
52765;DHT22;38650;44.536;18.664;2023-06-22T06:36:48;28.20;93.60
52765;DHT22;38650;44.536;18.664;2023-06-22T06:39:14;28.30;93.90
52765;DHT22;38650;44.536;18.664;2023-06-22T06:41:41;28.50;93.20
52765;DHT22;38650;44.536;18.664;2023-06-22T06:44:06;28.50;93.00
52765;DHT22;38650;44.536;18.664;2023-06-22T06:46:32;28.60;92.80
52765;DHT22;38650;44.536;18.664;2023-06-22T06:48:58;28.80;93.30
52765;DHT22;38650;44.536;18.664;2023-06-22T06:51:23;28.80;92.40
52765;DHT22;38650;44.536;18.664;2023-06-22T06:53:49;28.90;92.40
52765;DHT22;38650;44.536;18.664;2023-06-22T06:56:14;29.10;91.60
52765;DHT22;38650;44.536;18.664;2023-06-22T06:58:41;29.20;92.00
52765;DHT22;38650;44.536;18.664;2023-06-22T07:01:07;29.40;91.50
52765;DHT22;38650;44.536;18.664;2023-06-22T07:03:33;29.50;90.50
52765;DHT22;38650;44.536;18.664;2023-06-22T07:05:59;29.60;90.10
52765;DHT22;38650;44.536;18.664;2023-06-22T07:08:24;29.70;88.70
52765;DHT22;38650;44.536;18.664;2023-06-22T07:10:51;29.70;89.40
52765;DHT22;38650;44.536;18.664;2023-06-22T07:13:17;29.80;89.40
52765;DHT22;38650;44.536;18.664;2023-06-22T07:15:42;29.80;86.70
52765;DHT22;38650;44.536;18.664;2023-06-22T07:18:08;29.90;87.00
52765;DHT22;38650;44.536;18.664;2023-06-22T07:20:34;29.90;87.90
52765;DHT22;38650;44.536;18.664;2023-06-22T07:23:00;30.00;87.20
52765;DHT22;38650;44.536;18.664;2023-06-22T07:25:25;30.20;86.50
52765;DHT22;38650;44.536;18.664;2023-06-22T07:27:58;30.20;85.30
52765;DHT22;38650;44.536;18.664;2023-06-22T07:30:23;30.30;87.00
52765;DHT22;38650;44.536;18.664;2023-06-22T07:32:49;30.50;87.80
52765;DHT22;38650;44.536;18.664;2023-06-22T07:35:15;30.70;85.90
52765;DHT22;38650;44.536;18.664;2023-06-22T07:37:42;31.00;82.90
52765;DHT22;38650;44.536;18.664;2023-06-22T07:40:07;31.20;82.90
52765;DHT22;38650;44.536;18.664;2023-06-22T07:42:33;31.40;83.80
52765;DHT22;38650;44.536;18.664;2023-06-22T07:44:59;31.60;81.60
52765;DHT22;38650;44.536;18.664;2023-06-22T07:47:25;31.70;79.30
52765;DHT22;38650;44.536;18.664;2023-06-22T07:49:54;31.80;78.80
52765;DHT22;38650;44.536;18.664;2023-06-22T07:52:21;33.10;75.80
52765;DHT22;38650;44.536;18.664;2023-06-22T07:54:46;34.80;70.70
52765;DHT22;38650;44.536;18.664;2023-06-22T07:57:12;36.20;67.90
52765;DHT22;38650;44.536;18.664;2023-06-22T07:59:37;37.20;66.30
52765;DHT22;38650;44.536;18.664;2023-06-22T08:02:04;38.10;63.20
52765;DHT22;38650;44.536;18.664;2023-06-22T08:04:30;38.80;59.90
52765;DHT22;38650;44.536;18.664;2023-06-22T08:06:57;39.40;57.90
52765;DHT22;38650;44.536;18.664;2023-06-22T08:09:23;39.90;55.60
52765;DHT22;38650;44.536;18.664;2023-06-22T08:11:48;40.10;53.30
52765;DHT22;38650;44.536;18.664;2023-06-22T08:14:14;40.20;53.80
52765;DHT22;38650;44.536;18.664;2023-06-22T08:16:41;40.60;54.30
52765;DHT22;38650;44.536;18.664;2023-06-22T08:19:06;41.10;53.10
52765;DHT22;38650;44.536;18.664;2023-06-22T08:21:32;41.20;53.10
52765;DHT22;38650;44.536;18.664;2023-06-22T08:23:57;41.70;51.60
52765;DHT22;38650;44.536;18.664;2023-06-22T08:26:23;42.00;50.10
52765;DHT22;38650;44.536;18.664;2023-06-22T08:28:49;41.70;50.20
52765;DHT22;38650;44.536;18.664;2023-06-22T08:31:14;41.70;49.10
52765;DHT22;38650;44.536;18.664;2023-06-22T08:33:40;41.60;47.60
52765;DHT22;38650;44.536;18.664;2023-06-22T08:36:08;41.10;48.00
52765;DHT22;38650;44.536;18.664;2023-06-22T08:38:36;41.20;48.80
52765;DHT22;38650;44.536;18.664;2023-06-22T08:41:01;41.40;47.40
52765;DHT22;38650;44.536;18.664;2023-06-22T08:43:28;41.40;48.30
52765;DHT22;38650;44.536;18.664;2023-06-22T08:45:53;41.60;47.60
52765;DHT22;38650;44.536;18.664;2023-06-22T08:48:19;41.80;48.10
52765;DHT22;38650;44.536;18.664;2023-06-22T08:50:44;42.10;49.30
52765;DHT22;38650;44.536;18.664;2023-06-22T08:53:11;41.90;48.70
52765;DHT22;38650;44.536;18.664;2023-06-22T08:55:38;41.90;48.50
52765;DHT22;38650;44.536;18.664;2023-06-22T08:58:04;42.10;48.00
52765;DHT22;38650;44.536;18.664;2023-06-22T09:00:30;42.00;47.00
52765;DHT22;38650;44.536;18.664;2023-06-22T09:02:59;41.70;48.00
52765;DHT22;38650;44.536;18.664;2023-06-22T09:05:25;41.40;47.30
52765;DHT22;38650;44.536;18.664;2023-06-22T09:07:54;41.50;47.10
52765;DHT22;38650;44.536;18.664;2023-06-22T09:10:24;41.50;47.10
52765;DHT22;38650;44.536;18.664;2023-06-22T09:12:49;41.50;46.70
52765;DHT22;38650;44.536;18.664;2023-06-22T09:15:15;41.70;46.10
52765;DHT22;38650;44.536;18.664;2023-06-22T09:17:41;41.80;45.80
52765;DHT22;38650;44.536;18.664;2023-06-22T09:20:07;41.50;46.80
52765;DHT22;38650;44.536;18.664;2023-06-22T09:22:35;41.50;47.50
52765;DHT22;38650;44.536;18.664;2023-06-22T09:25:00;41.70;47.30
52765;DHT22;38650;44.536;18.664;2023-06-22T09:27:26;41.70;45.40
52765;DHT22;38650;44.536;18.664;2023-06-22T09:29:52;41.90;45.10
52765;DHT22;38650;44.536;18.664;2023-06-22T09:32:17;42.00;44.90
52765;DHT22;38650;44.536;18.664;2023-06-22T09:34:43;42.10;45.60
52765;DHT22;38650;44.536;18.664;2023-06-22T09:37:09;41.80;45.60
52765;DHT22;38650;44.536;18.664;2023-06-22T09:39:34;41.60;47.90
52765;DHT22;38650;44.536;18.664;2023-06-22T09:42:01;41.40;46.20
52765;DHT22;38650;44.536;18.664;2023-06-22T09:44:27;41.40;45.90
52765;DHT22;38650;44.536;18.664;2023-06-22T09:46:52;41.60;45.80
52765;DHT22;38650;44.536;18.664;2023-06-22T09:49:18;41.40;45.20
52765;DHT22;38650;44.536;18.664;2023-06-22T09:51:43;41.20;45.70
52765;DHT22;38650;44.536;18.664;2023-06-22T09:54:09;41.30;46.50
52765;DHT22;38650;44.536;18.664;2023-06-22T09:56:34;41.40;46.80
52765;DHT22;38650;44.536;18.664;2023-06-22T09:59:00;41.40;46.10
52765;DHT22;38650;44.536;18.664;2023-06-22T10:01:25;41.50;45.60
52765;DHT22;38650;44.536;18.664;2023-06-22T10:03:55;41.50;46.60
52765;DHT22;38650;44.536;18.664;2023-06-22T10:06:21;41.70;46.00
52765;DHT22;38650;44.536;18.664;2023-06-22T10:08:47;41.70;45.10
52765;DHT22;38650;44.536;18.664;2023-06-22T10:11:14;41.50;47.00
52765;DHT22;38650;44.536;18.664;2023-06-22T10:13:39;41.50;45.50
52765;DHT22;38650;44.536;18.664;2023-06-22T10:16:05;41.50;46.00
52765;DHT22;38650;44.536;18.664;2023-06-22T10:18:30;41.40;47.10
52765;DHT22;38650;44.536;18.664;2023-06-22T10:20:56;41.40;46.80
52765;DHT22;38650;44.536;18.664;2023-06-22T10:23:21;41.40;45.30
52765;DHT22;38650;44.536;18.664;2023-06-22T10:25:47;41.50;47.40
52765;DHT22;38650;44.536;18.664;2023-06-22T10:28:13;41.50;45.20
52765;DHT22;38650;44.536;18.664;2023-06-22T10:30:39;41.40;44.90
52765;DHT22;38650;44.536;18.664;2023-06-22T10:33:10;41.40;47.10
52765;DHT22;38650;44.536;18.664;2023-06-22T10:35:36;41.40;45.10
52765;DHT22;38650;44.536;18.664;2023-06-22T10:38:04;41.50;46.70
52765;DHT22;38650;44.536;18.664;2023-06-22T10:40:30;41.70;45.20
52765;DHT22;38650;44.536;18.664;2023-06-22T10:42:56;42.00;44.10
52765;DHT22;38650;44.536;18.664;2023-06-22T10:45:21;42.00;43.80
52765;DHT22;38650;44.536;18.664;2023-06-22T10:47:47;42.00;44.00
52765;DHT22;38650;44.536;18.664;2023-06-22T10:50:12;41.70;44.10
52765;DHT22;38650;44.536;18.664;2023-06-22T10:52:38;41.50;45.80
52765;DHT22;38650;44.536;18.664;2023-06-22T10:55:04;41.50;45.60
52765;DHT22;38650;44.536;18.664;2023-06-22T10:57:30;41.30;44.20
52765;DHT22;38650;44.536;18.664;2023-06-22T10:59:56;41.40;47.10
52765;DHT22;38650;44.536;18.664;2023-06-22T11:02:21;41.50;45.50
52765;DHT22;38650;44.536;18.664;2023-06-22T11:04:47;41.60;45.30
52765;DHT22;38650;44.536;18.664;2023-06-22T11:07:13;41.80;44.60
52765;DHT22;38650;44.536;18.664;2023-06-22T11:09:38;42.10;43.50
52765;DHT22;38650;44.536;18.664;2023-06-22T11:12:05;42.10;44.00
52765;DHT22;38650;44.536;18.664;2023-06-22T11:14:30;42.00;43.20
52765;DHT22;38650;44.536;18.664;2023-06-22T11:16:56;42.00;45.90
52765;DHT22;38650;44.536;18.664;2023-06-22T11:19:21;42.00;43.60
52765;DHT22;38650;44.536;18.664;2023-06-22T11:21:47;41.90;43.30
52765;DHT22;38650;44.536;18.664;2023-06-22T11:24:13;41.70;43.70
52765;DHT22;38650;44.536;18.664;2023-06-22T11:26:38;41.70;44.10
52765;DHT22;38650;44.536;18.664;2023-06-22T11:29:04;41.80;44.20
52765;DHT22;38650;44.536;18.664;2023-06-22T11:31:31;42.00;43.20
52765;DHT22;38650;44.536;18.664;2023-06-22T11:33:56;42.10;42.80
52765;DHT22;38650;44.536;18.664;2023-06-22T11:36:22;42.30;41.70
52765;DHT22;38650;44.536;18.664;2023-06-22T11:38:48;42.30;41.30
52765;DHT22;38650;44.536;18.664;2023-06-22T11:41:13;42.20;40.40
52765;DHT22;38650;44.536;18.664;2023-06-22T11:43:39;42.10;42.70
52765;DHT22;38650;44.536;18.664;2023-06-22T11:46:04;42.30;39.50
52765;DHT22;38650;44.536;18.664;2023-06-22T11:48:30;42.10;40.00
52765;DHT22;38650;44.536;18.664;2023-06-22T11:50:56;42.20;42.90
52765;DHT22;38650;44.536;18.664;2023-06-22T11:53:21;42.40;41.30
52765;DHT22;38650;44.536;18.664;2023-06-22T11:55:47;42.50;40.00
52765;DHT22;38650;44.536;18.664;2023-06-22T11:58:13;42.50;39.00
52765;DHT22;38650;44.536;18.664;2023-06-22T12:00:38;42.50;39.20
52765;DHT22;38650;44.536;18.664;2023-06-22T12:03:04;42.60;39.50
52765;DHT22;38650;44.536;18.664;2023-06-22T12:05:29;42.60;38.40
52765;DHT22;38650;44.536;18.664;2023-06-22T12:07:55;42.70;39.50
52765;DHT22;38650;44.536;18.664;2023-06-22T12:10:24;42.60;41.30
52765;DHT22;38650;44.536;18.664;2023-06-22T12:12:50;42.30;40.50
52765;DHT22;38650;44.536;18.664;2023-06-22T12:15:15;42.10;40.60
52765;DHT22;38650;44.536;18.664;2023-06-22T12:17:41;42.10;40.60
52765;DHT22;38650;44.536;18.664;2023-06-22T12:20:07;42.40;40.20
52765;DHT22;38650;44.536;18.664;2023-06-22T12:22:33;42.60;39.90
52765;DHT22;38650;44.536;18.664;2023-06-22T12:24:58;42.50;39.40
52765;DHT22;38650;44.536;18.664;2023-06-22T12:27:24;42.00;41.70
52765;DHT22;38650;44.536;18.664;2023-06-22T12:29:50;41.80;40.10
52765;DHT22;38650;44.536;18.664;2023-06-22T12:32:15;41.70;39.90
52765;DHT22;38650;44.536;18.664;2023-06-22T12:34:42;41.80;38.60
52765;DHT22;38650;44.536;18.664;2023-06-22T12:37:07;41.90;39.20
52765;DHT22;38650;44.536;18.664;2023-06-22T12:39:33;42.00;37.10
52765;DHT22;38650;44.536;18.664;2023-06-22T12:41:59;41.90;39.90
52765;DHT22;38650;44.536;18.664;2023-06-22T12:44:24;42.00;38.80
52765;DHT22;38650;44.536;18.664;2023-06-22T12:46:50;42.20;40.50
52765;DHT22;38650;44.536;18.664;2023-06-22T12:49:15;42.30;39.70
52765;DHT22;38650;44.536;18.664;2023-06-22T12:51:41;42.40;40.30
52765;DHT22;38650;44.536;18.664;2023-06-22T12:54:10;42.50;39.00
52765;DHT22;38650;44.536;18.664;2023-06-22T12:56:35;42.50;40.80
52765;DHT22;38650;44.536;18.664;2023-06-22T12:59:01;42.40;40.00
52765;DHT22;38650;44.536;18.664;2023-06-22T13:01:27;42.30;39.30
52765;DHT22;38650;44.536;18.664;2023-06-22T13:03:53;42.40;39.30
52765;DHT22;38650;44.536;18.664;2023-06-22T13:06:18;42.40;37.30
52765;DHT22;38650;44.536;18.664;2023-06-22T13:08:44;42.40;39.00
52765;DHT22;38650;44.536;18.664;2023-06-22T13:11:10;42.50;38.20
52765;DHT22;38650;44.536;18.664;2023-06-22T13:13:35;42.30;39.90
52765;DHT22;38650;44.536;18.664;2023-06-22T13:16:01;42.30;40.30
52765;DHT22;38650;44.536;18.664;2023-06-22T13:18:26;42.30;39.80
52765;DHT22;38650;44.536;18.664;2023-06-22T13:20:52;42.40;40.50
52765;DHT22;38650;44.536;18.664;2023-06-22T13:23:20;42.40;40.30
52765;DHT22;38650;44.536;18.664;2023-06-22T13:25:46;42.20;40.20
52765;DHT22;38650;44.536;18.664;2023-06-22T13:28:11;42.20;41.80
52765;DHT22;38650;44.536;18.664;2023-06-22T13:30:39;42.10;40.00
52765;DHT22;38650;44.536;18.664;2023-06-22T13:33:05;42.10;40.40
52765;DHT22;38650;44.536;18.664;2023-06-22T13:35:31;42.00;40.00
52765;DHT22;38650;44.536;18.664;2023-06-22T13:37:56;41.70;38.30
52765;DHT22;38650;44.536;18.664;2023-06-22T13:40:22;41.80;39.80
52765;DHT22;38650;44.536;18.664;2023-06-22T13:42:47;41.60;40.70
52765;DHT22;38650;44.536;18.664;2023-06-22T13:45:13;41.60;37.90
52765;DHT22;38650;44.536;18.664;2023-06-22T13:47:39;41.50;40.20
52765;DHT22;38650;44.536;18.664;2023-06-22T13:50:04;41.60;39.10
52765;DHT22;38650;44.536;18.664;2023-06-22T13:52:30;41.70;40.50
52765;DHT22;38650;44.536;18.664;2023-06-22T13:54:55;41.70;41.10
52765;DHT22;38650;44.536;18.664;2023-06-22T13:57:21;41.70;39.10
52765;DHT22;38650;44.536;18.664;2023-06-22T13:59:47;41.70;40.50
52765;DHT22;38650;44.536;18.664;2023-06-22T14:02:12;41.50;39.20
52765;DHT22;38650;44.536;18.664;2023-06-22T14:04:38;41.40;39.10
52765;DHT22;38650;44.536;18.664;2023-06-22T14:07:03;41.60;40.30
52765;DHT22;38650;44.536;18.664;2023-06-22T14:09:29;41.20;38.20
52765;DHT22;38650;44.536;18.664;2023-06-22T14:11:55;41.10;39.20
52765;DHT22;38650;44.536;18.664;2023-06-22T14:14:21;41.00;41.40
52765;DHT22;38650;44.536;18.664;2023-06-22T14:16:46;41.00;39.20
52765;DHT22;38650;44.536;18.664;2023-06-22T14:19:14;41.10;38.10
52765;DHT22;38650;44.536;18.664;2023-06-22T14:21:40;41.20;39.50
52765;DHT22;38650;44.536;18.664;2023-06-22T14:24:05;41.30;40.50
52765;DHT22;38650;44.536;18.664;2023-06-22T14:26:31;41.30;40.50
52765;DHT22;38650;44.536;18.664;2023-06-22T14:28:56;41.30;41.40
52765;DHT22;38650;44.536;18.664;2023-06-22T14:31:22;41.30;40.10
52765;DHT22;38650;44.536;18.664;2023-06-22T14:33:48;41.40;41.70
52765;DHT22;38650;44.536;18.664;2023-06-22T14:36:14;41.40;42.80
52765;DHT22;38650;44.536;18.664;2023-06-22T14:38:40;41.30;44.00
52765;DHT22;38650;44.536;18.664;2023-06-22T14:41:06;41.30;42.00
52765;DHT22;38650;44.536;18.664;2023-06-22T14:43:31;41.10;42.10
52765;DHT22;38650;44.536;18.664;2023-06-22T14:45:57;40.70;43.60
52765;DHT22;38650;44.536;18.664;2023-06-22T14:48:23;40.40;44.00
52765;DHT22;38650;44.536;18.664;2023-06-22T14:50:48;40.00;44.80
52765;DHT22;38650;44.536;18.664;2023-06-22T14:53:14;39.60;45.00
52765;DHT22;38650;44.536;18.664;2023-06-22T14:55:40;39.10;46.20
52765;DHT22;38650;44.536;18.664;2023-06-22T14:58:05;38.90;46.60
52765;DHT22;38650;44.536;18.664;2023-06-22T15:00:31;38.80;46.20
52765;DHT22;38650;44.536;18.664;2023-06-22T15:02:56;38.70;46.10
52765;DHT22;38650;44.536;18.664;2023-06-22T15:05:22;38.50;47.00
52765;DHT22;38650;44.536;18.664;2023-06-22T15:07:49;38.40;46.60
52765;DHT22;38650;44.536;18.664;2023-06-22T15:10:15;38.40;46.90
52765;DHT22;38650;44.536;18.664;2023-06-22T15:12:40;38.20;47.60